createdAt,value
2022-11-17T00:02:44.990Z,4.33
2022-11-17T00:06:46.989Z,6.63
2022-11-17T00:10:48.838Z,4.90
2022-11-17T00:14:50.769Z,6.27
2022-11-17T00:19:11.176Z,5.33
2022-11-17T00:23:13.087Z,5.40
2022-11-17T00:27:15.320Z,5.50
2022-11-17T00:31:38.037Z,5.30
2022-11-17T00:35:40.003Z,4.93
2022-11-17T00:39:41.997Z,4.30
2022-11-17T00:43:43.764Z,4.93
2022-11-17T00:47:45.684Z,5.07
2022-11-17T00:51:47.690Z,6.10
2022-11-17T00:55:49.528Z,5.40
2022-11-17T00:59:51.432Z,4.00
2022-11-17T01:04:03.195Z,4.57
2022-11-17T01:08:05.591Z,4.97
2022-11-17T01:12:07.505Z,5.70
2022-11-17T01:16:14.887Z,3.37
2022-11-17T01:20:16.713Z,2.73
2022-11-17T01:24:18.711Z,3.30
2022-11-17T01:28:20.508Z,2.67
2022-11-17T01:32:46.981Z,3.00
2022-11-17T01:37:07.649Z,3.60
2022-11-17T01:41:21.308Z,2.67
2022-11-17T01:45:23.410Z,2.03
2022-11-17T01:49:25.779Z,2.53
2022-11-17T01:53:28.988Z,3.67
2022-11-17T01:57:46.433Z,2.20
2022-11-17T02:01:57.680Z,3.73
2022-11-17T02:06:12.886Z,2.87
2022-11-17T02:10:17.050Z,2.77
2022-11-17T02:14:18.989Z,1.73
2022-11-17T02:18:20.897Z,2.87
2022-11-17T02:23:03.509Z,2.03
2022-11-17T02:27:44.798Z,1.73
2022-11-17T02:31:58.196Z,1.87
2022-11-17T02:36:16.615Z,1.97
2022-11-17T02:41:00.318Z,2.10
2022-11-17T02:45:02.873Z,1.80
2022-11-17T02:49:12.477Z,1.50
2022-11-17T02:53:14.442Z,2.23
2022-11-17T02:57:40.186Z,1.90
2022-11-17T03:01:57.143Z,1.93
2022-11-17T03:06:14.505Z,1.67
2022-11-17T03:10:48.512Z,1.80
2022-11-17T03:15:14.473Z,1.87
2022-11-17T03:19:39.491Z,2.47
2022-11-17T03:23:47.106Z,1.93
2022-11-17T03:27:52.743Z,2.53
2022-11-17T03:31:58.347Z,2.20
2022-11-17T03:36:07.920Z,2.17
2022-11-17T03:40:12.407Z,2.27
2022-11-17T03:44:14.467Z,2.43
2022-11-17T03:48:45.228Z,3.30
2022-11-17T03:57:50.068Z,1.90
2022-11-17T04:01:52.127Z,3.17
2022-11-17T04:05:54.262Z,1.83
2022-11-17T04:09:56.309Z,2.57
2022-11-17T04:14:22.242Z,3.10
2022-11-17T04:18:24.160Z,2.27
2022-11-17T04:22:26.062Z,2.60
2022-11-17T04:26:46.924Z,2.67
2022-11-17T04:30:48.831Z,2.73
2022-11-17T04:34:51.917Z,3.07
2022-11-17T04:38:55.471Z,3.10
2022-11-17T04:42:57.377Z,2.53
2022-11-17T04:46:59.597Z,3.23
2022-11-17T04:51:03.744Z,3.03
2022-11-17T04:55:06.329Z,2.47
2022-11-17T04:59:08.490Z,2.30
2022-11-17T05:03:10.386Z,3.37
2022-11-17T05:07:12.342Z,4.90
2022-11-17T05:11:33.513Z,3.00
2022-11-17T05:15:53.792Z,4.30
2022-11-17T05:19:56.028Z,4.63
2022-11-17T05:24:08.724Z,2.30
2022-11-17T05:28:54.018Z,2.83
2022-11-17T05:32:56.026Z,3.40
2022-11-17T05:36:59.625Z,3.13
2022-11-17T05:41:01.709Z,3.20
2022-11-17T05:45:19.313Z,4.40
2022-11-17T05:49:29.815Z,5.50
2022-11-17T05:53:32.184Z,2.30
2022-11-17T05:57:34.376Z,2.57
2022-11-17T06:07:03.531Z,2.67
2022-11-17T06:11:05.912Z,2.50
2022-11-17T06:15:08.501Z,1.97
2022-11-17T06:19:17.233Z,2.53
2022-11-17T06:23:26.929Z,2.93
2022-11-17T06:28:22.417Z,2.17
2022-11-17T06:32:24.389Z,1.73
2022-11-17T06:36:28.822Z,2.80
2022-11-17T06:40:48.116Z,2.60
2022-11-17T06:44:53.451Z,3.03
2022-11-17T06:48:55.523Z,2.00
2022-11-17T06:53:05.759Z,3.07
2022-11-17T06:57:07.844Z,2.17
2022-11-17T07:01:14.070Z,1.93
2022-11-17T07:05:16.417Z,2.67
2022-11-17T07:09:18.406Z,2.60
2022-11-17T07:13:24.015Z,2.43
2022-11-17T07:17:25.942Z,2.00
2022-11-17T07:21:30.121Z,2.60
2022-11-17T07:25:32.103Z,2.80
2022-11-17T07:29:34.021Z,4.27
2022-11-17T07:33:36.677Z,3.63
2022-11-17T07:37:38.577Z,2.87
2022-11-17T07:41:43.655Z,3.03
2022-11-17T07:45:45.629Z,3.40
2022-11-17T07:49:47.775Z,4.63
2022-11-17T07:54:41.088Z,2.57
2022-11-17T08:05:35.912Z,3.10
2022-11-17T08:21:32.739Z,3.20
2022-11-17T08:25:35.102Z,3.27
2022-11-17T08:29:56.245Z,6.37
2022-11-17T08:33:58.278Z,3.47
2022-11-17T08:38:02.373Z,3.00
2022-11-17T08:42:04.407Z,4.43
2022-11-17T08:46:15.514Z,3.40
2022-11-17T08:50:31.981Z,4.47
2022-11-17T11:44:12.897Z,4.63
2022-11-17T12:04:52.593Z,5.23
2022-11-17T12:09:46.587Z,4.70
2022-11-17T12:13:54.311Z,3.80
2022-11-17T12:18:00.394Z,4.67
2022-11-17T12:22:02.759Z,4.90
2022-11-17T12:26:04.876Z,3.87
2022-11-17T12:30:33.075Z,4.70
2022-11-17T12:34:37.233Z,4.77
2022-11-17T12:38:40.274Z,6.53
2022-11-17T12:43:21.490Z,5.00
2022-11-17T12:47:39.423Z,5.77
2022-11-17T12:52:00.667Z,4.70
2022-11-17T12:56:25.246Z,6.17
2022-11-17T13:00:27.228Z,5.03
2022-11-17T13:04:43.867Z,5.97
2022-11-17T13:14:28.402Z,7.40
2022-11-17T13:18:40.119Z,4.63
2022-11-17T13:22:46.226Z,5.70
2022-11-17T13:27:02.787Z,5.73
2022-11-17T13:31:22.645Z,5.30
2022-11-17T13:35:31.887Z,6.53
2022-11-17T13:39:37.377Z,5.13
2022-11-17T13:43:40.077Z,5.43
2022-11-17T13:47:50.760Z,6.07
2022-11-17T13:51:55.636Z,4.93
2022-11-17T13:55:57.929Z,4.20
2022-11-17T14:00:00.164Z,5.67
2022-11-17T14:04:22.444Z,5.40
2022-11-17T14:08:31.954Z,5.20
2022-11-17T14:12:37.895Z,6.87
2022-11-17T14:16:42.928Z,5.27
2022-11-17T14:20:47.610Z,7.53
2022-11-17T14:24:50.038Z,4.13
2022-11-17T14:29:14.222Z,5.80
2022-11-17T14:33:53.492Z,3.90
2022-11-17T14:37:55.977Z,4.57
2022-11-17T14:42:27.578Z,6.27
2022-11-17T14:46:38.940Z,5.40
2022-11-17T14:50:44.157Z,4.80
2022-11-17T14:55:48.742Z,6.30
2022-11-17T15:00:10.287Z,6.20
2022-11-17T15:04:49.396Z,5.90
2022-11-17T15:09:09.693Z,8.37
2022-11-17T15:13:12.171Z,5.33
2022-11-17T15:17:24.643Z,6.07
2022-11-17T15:21:26.561Z,4.70
2022-11-17T15:25:28.537Z,5.13
2022-11-17T15:29:30.589Z,6.60
2022-11-17T15:33:32.550Z,5.03
2022-11-17T15:37:35.688Z,6.03
2022-11-17T15:41:37.640Z,5.33
2022-11-17T15:45:45.727Z,5.70
2022-11-17T15:49:47.720Z,6.10
2022-11-17T15:53:51.047Z,5.87
2022-11-17T15:57:54.877Z,5.70
2022-11-17T16:02:00.449Z,6.50
2022-11-17T16:06:02.648Z,6.47
2022-11-17T16:10:05.293Z,6.37
2022-11-17T16:14:10.362Z,6.30
2022-11-17T16:18:12.331Z,5.63
2022-11-17T16:22:14.307Z,5.43
2022-11-17T16:26:19.554Z,6.27
2022-11-17T16:30:21.484Z,7.30
2022-11-17T16:34:25.814Z,7.07
2022-11-17T16:38:33.397Z,6.10
2022-11-17T16:42:35.460Z,5.93
2022-11-17T16:46:37.811Z,9.03
2022-11-17T16:50:54.438Z,6.93
2022-11-17T16:55:01.771Z,7.57
2022-11-17T16:59:06.556Z,7.00
2022-11-17T17:03:09.460Z,7.03
2022-11-17T17:07:14.249Z,7.03
2022-11-17T17:11:25.300Z,7.93
2022-11-17T17:15:36.986Z,7.00
2022-11-17T17:19:47.104Z,6.43
2022-11-17T17:29:09.073Z,7.50
2022-11-17T17:33:46.443Z,5.97
2022-11-17T17:40:03.974Z,7.63
2022-11-17T17:48:29.038Z,7.13
2022-11-17T18:04:36.078Z,9.63
2022-11-17T18:25:12.515Z,7.20
2022-11-17T18:29:21.341Z,7.93
2022-11-17T19:23:31.333Z,9.73
2022-11-17T20:54:15.713Z,10.93
2022-11-17T20:58:21.439Z,8.83
2022-11-17T21:07:08.863Z,10.57
2022-11-17T21:11:36.282Z,10.27
2022-11-17T21:15:38.218Z,10.47
2022-11-17T21:19:40.186Z,11.93
2022-11-17T21:23:44.618Z,11.93
2022-11-17T21:27:47.816Z,11.43
2022-11-17T21:37:05.402Z,11.77
2022-11-17T21:41:16.847Z,11.90
2022-11-17T21:45:19.076Z,12.37
2022-11-17T21:49:28.232Z,12.40
2022-11-17T21:53:37.485Z,13.30
2022-11-17T21:57:41.997Z,14.20
2022-11-17T22:01:44.008Z,11.17
2022-11-17T22:05:46.053Z,12.10
2022-11-17T22:09:59.930Z,15.10
2022-11-17T22:14:10.609Z,12.50
2022-11-17T22:18:12.578Z,15.03
2022-11-17T22:22:14.506Z,15.70
2022-11-17T22:26:16.781Z,13.70
2022-11-17T22:30:18.700Z,15.57
2022-11-17T22:34:20.693Z,15.07
2022-11-17T22:38:23.881Z,12.33
2022-11-17T22:42:25.768Z,14.37
2022-11-17T22:46:31.091Z,16.37
2022-11-17T22:50:33.131Z,15.33
2022-11-17T22:54:35.471Z,16.90
2022-11-17T22:58:37.393Z,14.97
2022-11-17T23:02:39.272Z,18.10
2022-11-17T23:06:41.127Z,15.23
2022-11-17T23:10:45.546Z,14.73
2022-11-17T23:14:47.547Z,15.23
2022-11-17T23:18:55.443Z,15.50
2022-11-17T23:22:57.533Z,16.40
2022-11-17T23:26:59.496Z,17.90
2022-11-17T23:31:03.391Z,15.93
2022-11-17T23:35:10.617Z,16.23
2022-11-17T23:39:12.779Z,14.43
2022-11-17T23:43:14.730Z,16.07
2022-11-17T23:47:19.110Z,18.03
2022-11-17T23:52:01.270Z,15.30
2022-11-17T23:56:14.069Z,15.07
